Time;durP1;ratioP1;P1;durP2;ratioP2;P2;SDS_P1;SDS_P2;PMS_P1;PMS_P2;Temp;Humidity;BMP_temperature;BMP_pressure;BME280_temperature;BME280_humidity;BME280_pressure;Samples;Min_cycle;Max_cycle;Signal;HPM_P1;HPM_P2
2021/11/09 00:01:04;;;;;;;7.22;1.88;;;;;;;;;;4924629;29;20114;-72
2021/11/09 00:03:33;;;;;;;3.70;1.70;;;;;;;;;;4923314;29;20135;-74
2021/11/09 00:06:22;;;;;;;5.45;1.80;;;;;;;;;;4929475;29;20031;-72
2021/11/09 00:08:54;;;;;;;4.35;1.63;;;;;;;;;;4927349;29;20075;-72
2021/11/09 00:11:20;;;;;;;6.60;1.90;;;;;;;;;;4927575;29;20028;-72
2021/11/09 00:13:47;;;;;;;5.35;1.95;;;;;;;;;;4929123;29;20020;-72
2021/11/09 00:16:13;;;;;;;5.85;1.92;;;;;;;;;;4930532;29;20066;-75
2021/11/09 00:18:39;;;;;;;5.00;1.80;;;;;;;;;;4931326;29;20115;-72
2021/11/09 00:21:06;;;;;;;5.32;1.70;;;;;;;;;;4932020;29;20428;-73
2021/11/09 00:23:32;;;;;;;5.50;1.90;;;;;;;;;;4931009;29;20040;-71
2021/11/09 00:25:58;;;;;;;7.38;1.80;;;;;;;;;;4928061;29;20034;-75
2021/11/09 00:28:24;;;;;;;6.65;1.83;;;;;;;;;;4927683;29;20047;-71
2021/11/09 00:30:50;;;;;;;7.53;1.67;;;;;;;;;;4926688;29;20084;-71
2021/11/09 00:33:17;;;;;;;5.20;1.67;;;;;;;;;;4928362;29;20031;-73
2021/11/09 00:35:43;;;;;;;7.93;2.08;;;;;;;;;;4925383;29;20388;-75
2021/11/09 00:38:11;;;;;;;4.43;1.95;;;;;;;;;;4929374;29;20039;-71
2021/11/09 00:40:38;;;;;;;4.68;1.50;;;;;;;;;;4928931;29;20032;-72
2021/11/09 00:43:05;;;;;;;9.05;2.10;;;;;;;;;;4933223;29;20449;-74
2021/11/09 00:45:31;;;;;;;11.02;1.70;;;;;;;;;;4927211;29;20028;-75
2021/11/09 00:47:58;;;;;;;7.72;1.90;;;;;;;;;;4931331;29;20036;-71
2021/11/09 00:50:24;;;;;;;5.85;1.85;;;;;;;;;;4929619;29;20024;-72
2021/11/09 00:52:51;;;;;;;6.53;1.85;;;;;;;;;;4928142;29;20028;-71
2021/11/09 00:55:17;;;;;;;5.82;1.63;;;;;;;;;;4927954;29;20028;-72
2021/11/09 00:57:44;;;;;;;3.85;1.70;;;;;;;;;;4926978;29;20028;-72
2021/11/09 01:00:13;;;;;;;6.18;1.77;;;;;;;;;;4931330;29;20070;-72
2021/11/09 01:02:40;;;;;;;5.13;1.67;;;;;;;;;;4928747;29;20027;-71
2021/11/09 01:05:06;;;;;;;4.00;1.65;;;;;;;;;;4929401;29;20035;-72
2021/11/09 01:07:32;;;;;;;7.80;1.70;;;;;;;;;;4924723;29;20086;-72
2021/11/09 01:09:59;;;;;;;4.50;1.67;;;;;;;;;;4926800;29;20028;-73
2021/11/09 01:12:25;;;;;;;5.28;1.80;;;;;;;;;;4929256;29;20114;-71
2021/11/09 01:14:51;;;;;;;5.03;1.85;;;;;;;;;;4929742;29;20036;-75
2021/11/09 01:17:18;;;;;;;10.23;2.10;;;;;;;;;;4930272;29;20015;-71
2021/11/09 01:19:44;;;;;;;5.15;1.70;;;;;;;;;;4924854;29;20035;-72
2021/11/09 01:22:10;;;;;;;5.75;1.88;;;;;;;;;;4926653;29;20035;-75
2021/11/09 01:24:36;;;;;;;4.90;2.35;;;;;;;;;;4927129;29;20468;-74
2021/11/09 01:27:03;;;;;;;8.00;2.30;;;;;;;;;;4932242;29;20034;-71
2021/11/09 01:29:29;;;;;;;7.82;2.65;;;;;;;;;;4928580;29;20054;-72
2021/11/09 01:31:55;;;;;;;5.40;2.33;;;;;;;;;;4926230;29;20027;-75
2021/11/09 01:34:22;;;;;;;6.50;2.45;;;;;;;;;;4925856;29;20515;-71
2021/11/09 01:36:48;;;;;;;3.88;1.80;;;;;;;;;;4928111;29;20034;-71
2021/11/09 01:39:14;;;;;;;6.05;1.77;;;;;;;;;;4928633;29;20043;-72
2021/11/09 01:41:41;;;;;;;5.40;1.90;;;;;;;;;;4926617;29;20039;-74
2021/11/09 01:44:08;;;;;;;6.25;2.22;;;;;;;;;;4928917;29;20133;-71
2021/11/09 01:46:34;;;;;;;5.65;1.67;;;;;;;;;;4931865;29;20448;-72
2021/11/09 01:49:01;;;;;;;3.17;1.40;;;;;;;;;;4925574;29;20040;-71
2021/11/09 01:51:29;;;;;;;5.95;1.75;;;;;;;;;;4929243;29;20500;-71
2021/11/09 01:53:56;;;;;;;3.92;1.70;;;;;;;;;;4927031;29;20035;-74
2021/11/09 01:56:26;;;;;;;5.20;1.73;;;;;;;;;;4928499;29;20086;-71
2021/11/09 01:58:52;;;;;;;4.43;1.55;;;;;;;;;;4925295;29;20469;-75
2021/11/09 02:01:19;;;;;;;5.40;1.63;;;;;;;;;;4924939;29;20020;-75
2021/11/09 02:03:56;;;;;;;6.72;1.67;;;;;;;;;;4928891;29;20031;-72
2021/11/09 02:06:23;;;;;;;6.22;1.65;;;;;;;;;;4927912;29;20028;-71
2021/11/09 02:08:50;;;;;;;7.38;2.53;;;;;;;;;;4928870;29;20055;-72
2021/11/09 02:11:17;;;;;;;7.15;2.90;;;;;;;;;;4927227;29;20483;-73
2021/11/09 02:13:43;;;;;;;8.23;2.38;;;;;;;;;;4930914;29;20030;-71
2021/11/09 02:16:11;;;;;;;7.30;2.25;;;;;;;;;;4925469;29;20098;-72
2021/11/09 02:18:37;;;;;;;10.35;2.40;;;;;;;;;;4928250;29;20110;-71
2021/11/09 02:21:10;;;;;;;10.50;4.07;;;;;;;;;;4928628;29;20103;-71
2021/11/09 02:23:37;;;;;;;11.30;4.40;;;;;;;;;;4925643;29;20424;-72
2021/11/09 02:26:05;;;;;;;15.38;5.78;;;;;;;;;;4927448;29;20026;-72
2021/11/09 02:28:31;;;;;;;17.77;6.20;;;;;;;;;;4929056;29;20047;-71
2021/11/09 02:30:58;;;;;;;15.90;6.70;;;;;;;;;;4925928;29;20039;-71
2021/11/09 02:33:24;;;;;;;16.65;7.90;;;;;;;;;;4921580;29;20156;-71
2021/11/09 02:35:50;;;;;;;20.10;7.25;;;;;;;;;;4929171;29;20023;-71
2021/11/09 02:38:17;;;;;;;15.90;6.28;;;;;;;;;;4926935;29;20909;-71
2021/11/09 02:40:44;;;;;;;11.63;5.43;;;;;;;;;;4926893;29;20067;-72
2021/11/09 02:43:11;;;;;;;16.10;4.97;;;;;;;;;;4925196;29;20465;-75
2021/11/09 02:45:48;;;;;;;8.05;4.35;;;;;;;;;;4921846;29;20052;-71
2021/11/09 02:48:28;;;;;;;10.10;2.97;;;;;;;;;;4924984;29;20051;-72
2021/11/09 02:51:00;;;;;;;10.35;3.35;;;;;;;;;;4928014;29;20035;-71
2021/11/09 02:56:04;;;;;;;11.65;3.22;;;;;;;;;;4926331;29;20094;-73
2021/11/09 02:58:44;;;;;;;9.43;2.97;;;;;;;;;;4927529;29;20111;-71
2021/11/09 03:04:23;;;;;;;7.88;2.30;;;;;;;;;;4921142;29;20047;-77
2021/11/09 03:11:54;;;;;;;4.80;1.60;;;;;;;;;;4928244;29;20032;-75
2021/11/09 03:14:22;;;;;;;6.78;1.70;;;;;;;;;;4925956;29;20027;-71
2021/11/09 03:16:48;;;;;;;5.47;1.85;;;;;;;;;;4925486;29;20058;-76
2021/11/09 03:46:30;;;;;;;5.88;1.85;;;;;;;;;;4924619;29;20124;-74
2021/11/09 03:48:56;;;;;;;5.43;2.10;;;;;;;;;;4926789;29;20039;-74
2021/11/09 03:51:23;;;;;;;6.30;1.95;;;;;;;;;;4925946;29;20468;-71
2021/11/09 03:53:49;;;;;;;3.70;1.75;;;;;;;;;;4927285;29;20043;-71
2021/11/09 03:56:24;;;;;;;4.93;1.88;;;;;;;;;;4930427;29;20032;-75
2021/11/09 03:58:52;;;;;;;5.80;1.80;;;;;;;;;;4929421;29;20039;-71
2021/11/09 04:01:23;;;;;;;6.22;2.03;;;;;;;;;;4933872;29;20024;-71
2021/11/09 04:06:37;;;;;;;5.13;1.90;;;;;;;;;;4924734;29;20497;-71
2021/11/09 04:15:28;;;;;;;5.07;1.75;;;;;;;;;;4911561;29;20031;-73
2021/11/09 04:23:28;;;;;;;5.63;2.03;;;;;;;;;;4928438;29;20083;-71
2021/11/09 04:25:36;;;;;;;6.47;1.70;;;;;;;;;;4921935;29;20437;-73
2021/11/09 04:45:47;;;;;;;5.82;1.77;;;;;;;;;;4891505;29;20048;-73
2021/11/09 05:11:56;;;;;;;6.93;1.77;;;;;;;;;;4924904;29;20052;-76
2021/11/09 05:14:22;;;;;;;5.47;1.83;;;;;;;;;;4928722;29;20024;-71
2021/11/09 05:16:48;;;;;;;4.60;1.63;;;;;;;;;;4926494;29;20103;-75
2021/11/09 05:19:14;;;;;;;5.28;1.42;;;;;;;;;;4928020;29;20032;-76
2021/11/09 05:21:41;;;;;;;4.28;1.65;;;;;;;;;;4930453;29;20070;-75
2021/11/09 05:24:08;;;;;;;5.35;1.73;;;;;;;;;;4934011;29;20075;-76
2021/11/09 05:26:34;;;;;;;4.30;1.60;;;;;;;;;;4924870;29;20040;-76
2021/11/09 05:29:01;;;;;;;4.63;1.60;;;;;;;;;;4928493;29;20025;-73
2021/11/09 05:31:27;;;;;;;4.60;1.80;;;;;;;;;;4926279;29;20135;-72
2021/11/09 05:33:57;;;;;;;5.35;1.80;;;;;;;;;;4929436;29;20027;-76
2021/11/09 05:36:33;;;;;;;6.53;1.90;;;;;;;;;;4924820;29;20067;-76
2021/11/09 05:39:09;;;;;;;7.10;1.60;;;;;;;;;;4927396;29;20080;-72
2021/11/09 05:41:37;;;;;;;6.55;1.67;;;;;;;;;;4927776;29;20110;-74
2021/11/09 05:44:04;;;;;;;8.13;1.63;;;;;;;;;;4922225;29;20271;-71
2021/11/09 05:46:31;;;;;;;7.25;1.63;;;;;;;;;;4928485;29;20031;-76
2021/11/09 05:48:57;;;;;;;3.20;1.30;;;;;;;;;;4926999;29;20119;-72
2021/11/09 05:51:23;;;;;;;4.07;1.40;;;;;;;;;;4927562;29;20032;-76
2021/11/09 05:53:49;;;;;;;7.68;1.75;;;;;;;;;;4922428;29;20050;-75
2021/11/09 05:56:16;;;;;;;5.10;1.52;;;;;;;;;;4928034;29;20024;-76
2021/11/09 05:58:42;;;;;;;5.97;1.65;;;;;;;;;;4929861;29;20091;-74
2021/11/09 06:01:09;;;;;;;5.50;1.58;;;;;;;;;;4924656;29;20666;-75
2021/11/09 06:03:35;;;;;;;4.80;1.45;;;;;;;;;;4924342;29;20102;-71
2021/11/09 06:06:02;;;;;;;6.47;1.77;;;;;;;;;;4925464;29;20038;-74
2021/11/09 06:08:28;;;;;;;6.05;1.33;;;;;;;;;;4927338;29;20043;-74
2021/11/09 06:10:54;;;;;;;5.22;1.83;;;;;;;;;;4929069;29;20107;-71
2021/11/09 06:13:20;;;;;;;5.13;1.58;;;;;;;;;;4927518;29;20024;-71
2021/11/09 06:15:46;;;;;;;5.43;1.50;;;;;;;;;;4927715;29;20063;-76
2021/11/09 06:18:12;;;;;;;7.88;1.60;;;;;;;;;;4926721;29;20096;-71
2021/11/09 06:20:39;;;;;;;5.05;1.60;;;;;;;;;;4928240;29;20023;-71
2021/11/09 06:23:05;;;;;;;3.35;1.48;;;;;;;;;;4928884;29;20056;-71
2021/11/09 06:25:31;;;;;;;8.13;2.88;;;;;;;;;;4927745;29;20031;-72
2021/11/09 06:27:58;;;;;;;7.13;1.90;;;;;;;;;;4925280;29;20412;-76
2021/11/09 06:30:24;;;;;;;3.17;2.08;;;;;;;;;;4926895;29;20052;-71
2021/11/09 06:32:50;;;;;;;4.57;2.63;;;;;;;;;;4927413;29;20159;-71
2021/11/09 06:35:17;;;;;;;4.97;1.90;;;;;;;;;;4925431;29;20133;-74
2021/11/09 06:37:43;;;;;;;7.55;2.00;;;;;;;;;;4927908;29;20515;-74
2021/11/09 06:40:10;;;;;;;4.68;1.73;;;;;;;;;;4924212;29;20039;-75
2021/11/09 06:42:37;;;;;;;11.88;4.28;;;;;;;;;;4926032;29;20035;-72
2021/11/09 06:45:04;;;;;;;8.75;3.88;;;;;;;;;;4926849;29;20107;-77
2021/11/09 06:47:31;;;;;;;8.85;4.00;;;;;;;;;;4924425;29;20028;-74
2021/11/09 06:49:57;;;;;;;9.30;4.88;;;;;;;;;;4930158;29;20150;-73
2021/11/09 06:52:24;;;;;;;10.65;5.30;;;;;;;;;;4928233;29;20533;-73
2021/11/09 06:54:51;;;;;;;11.73;4.93;;;;;;;;;;4928863;29;20024;-72
2021/11/09 06:57:17;;;;;;;7.30;4.50;;;;;;;;;;4927337;29;20114;-71
2021/11/09 06:59:46;;;;;;;15.05;4.35;;;;;;;;;;4923241;29;20102;-71
2021/11/09 07:02:12;;;;;;;13.75;5.30;;;;;;;;;;4924297;29;20035;-71
2021/11/09 07:04:39;;;;;;;8.20;4.82;;;;;;;;;;4923881;29;20554;-72
2021/11/09 07:07:06;;;;;;;6.93;3.22;;;;;;;;;;4925141;29;20031;-75
2021/11/09 07:09:32;;;;;;;7.93;3.28;;;;;;;;;;4927154;29;20162;-71
2021/11/09 07:11:58;;;;;;;10.85;4.03;;;;;;;;;;4928183;29;20035;-72
2021/11/09 07:14:25;;;;;;;8.38;3.72;;;;;;;;;;4923254;29;20097;-72
2021/11/09 07:16:52;;;;;;;9.30;3.83;;;;;;;;;;4929946;29;20495;-72
2021/11/09 07:19:19;;;;;;;39.08;33.25;;;;;;;;;;4926335;29;20034;-73
2021/11/09 07:21:46;;;;;;;39.58;33.95;;;;;;;;;;4925919;29;20027;-72
2021/11/09 07:24:12;;;;;;;72.32;56.03;;;;;;;;;;4927746;29;20035;-71
2021/11/09 07:26:39;;;;;;;87.68;61.28;;;;;;;;;;4926113;29;20035;-73
2021/11/09 07:29:06;;;;;;;80.32;53.67;;;;;;;;;;4923190;29;20099;-74
2021/11/09 07:31:32;;;;;;;35.10;24.42;;;;;;;;;;4916017;29;20099;-74
2021/11/09 07:33:59;;;;;;;13.07;6.55;;;;;;;;;;4921802;29;20399;-75
2021/11/09 07:36:25;;;;;;;10.60;4.05;;;;;;;;;;4918463;29;20082;-74
2021/11/09 07:38:52;;;;;;;6.75;3.00;;;;;;;;;;4914991;29;20063;-74
2021/11/09 07:41:18;;;;;;;10.00;3.60;;;;;;;;;;4919000;29;20020;-74
2021/11/09 07:43:45;;;;;;;8.93;3.70;;;;;;;;;;4919323;29;20035;-74
2021/11/09 07:46:11;;;;;;;14.80;4.03;;;;;;;;;;4920982;29;20020;-74
2021/11/09 07:48:38;;;;;;;9.35;4.15;;;;;;;;;;4917910;29;20730;-73
2021/11/09 07:51:04;;;;;;;7.75;3.47;;;;;;;;;;4919286;29;20036;-74
2021/11/09 07:53:34;;;;;;;6.65;3.35;;;;;;;;;;4919592;29;20123;-74
2021/11/09 07:56:17;;;;;;;8.55;3.45;;;;;;;;;;4917411;29;20461;-73
2021/11/09 08:01:17;;;;;;;6.70;3.10;;;;;;;;;;4919137;29;20114;-73
2021/11/09 08:04:01;;;;;;;12.55;3.97;;;;;;;;;;4923629;29;20035;-75
2021/11/09 08:06:42;;;;;;;10.55;3.83;;;;;;;;;;4918834;29;20066;-72
2021/11/09 08:11:46;;;;;;;14.57;6.35;;;;;;;;;;4920732;29;20028;-74
2021/11/09 08:14:12;;;;;;;13.35;7.45;;;;;;;;;;4919250;29;20054;-74
2021/11/09 08:16:39;;;;;;;19.70;7.68;;;;;;;;;;4917387;29;20023;-72
2021/11/09 08:22:15;;;;;;;15.85;6.47;;;;;;;;;;4497825;29;20066;-93
2021/11/09 08:24:41;;;;;;;24.75;13.70;;;;;;;;;;4939009;29;20039;-93
2021/11/09 08:27:10;;;;;;;30.05;17.30;;;;;;;;;;4938720;29;20582;-92
2021/11/09 08:29:36;;;;;;;55.83;35.15;;;;;;;;;;4938356;29;20575;-93
2021/11/09 08:32:02;;;;;;;76.00;45.92;;;;;;;;;;4938455;29;20024;-92
2021/11/09 08:34:30;;;;;;;41.30;24.70;;;;;;;;;;4938838;29;20488;-92
2021/11/09 08:36:58;;;;;;;23.33;11.20;;;;;;;;;;4939182;29;20023;-93
2021/11/09 08:39:35;;;;;;;12.25;4.63;;;;;;;;;;4938301;29;20028;-92
2021/11/09 08:44:35;;;;;;;10.93;3.80;;;;;;;;;;4939406;29;20460;-93
2021/11/09 08:47:02;;;;;;;8.50;4.10;;;;;;;;;;4938157;29;20024;-93
2021/11/09 08:49:31;;;;;;;8.80;3.85;;;;;;;;;;4938009;29;20036;-93
2021/11/09 08:51:59;;;;;;;4.93;3.22;;;;;;;;;;4938089;29;20039;-93
2021/11/09 08:54:35;;;;;;;8.20;3.47;;;;;;;;;;4938001;29;20020;-93
2021/11/09 09:05:11;;;;;;;10.52;4.18;;;;;;;;;;4938889;29;20132;-93
2021/11/09 09:07:38;;;;;;;8.93;4.10;;;;;;;;;;4937701;29;20051;-92
2021/11/09 09:10:05;;;;;;;13.00;4.00;;;;;;;;;;4937759;29;20023;-93
2021/11/09 09:12:32;;;;;;;9.93;4.68;;;;;;;;;;4937812;29;20024;-93
2021/11/09 09:14:59;;;;;;;15.10;5.10;;;;;;;;;;4937418;29;20076;-93
2021/11/09 09:17:26;;;;;;;12.52;5.88;;;;;;;;;;4937515;29;20119;-93
2021/11/09 09:20:01;;;;;;;27.20;16.60;;;;;;;;;;4937584;29;20100;-93
2021/11/09 09:22:42;;;;;;;36.35;28.80;;;;;;;;;;4937443;29;20389;-92
2021/11/09 09:57:08;;;;;;;6.97;4.00;;;;;;;;;;4938112;29;20129;-93
2021/11/09 09:59:36;;;;;;;8.23;4.28;;;;;;;;;;4936744;29;20032;-93
2021/11/09 10:02:05;;;;;;;10.25;7.07;;;;;;;;;;4936806;29;20135;-93
2021/11/09 10:04:33;;;;;;;12.25;8.65;;;;;;;;;;4936879;29;20031;-92
2021/11/09 10:07:00;;;;;;;9.75;5.85;;;;;;;;;;4936623;29;20028;-92
2021/11/09 10:09:31;;;;;;;6.95;4.10;;;;;;;;;;4936612;29;20035;-94
2021/11/09 10:11:57;;;;;;;8.50;4.43;;;;;;;;;;4936644;29;20392;-93
2021/11/09 10:14:34;;;;;;;5.40;3.78;;;;;;;;;;4936958;29;20032;-93
2021/11/09 10:17:14;;;;;;;13.95;7.85;;;;;;;;;;4936508;29;20491;-92
2021/11/09 10:19:40;;;;;;;16.58;9.45;;;;;;;;;;4936518;29;20392;-92
2021/11/09 10:22:39;;;;;;;9.50;7.22;;;;;;;;;;4936148;29;20064;-93
2021/11/09 10:25:05;;;;;;;8.15;5.10;;;;;;;;;;4895045;29;20043;-93
2021/11/09 10:27:34;;;;;;;8.30;4.65;;;;;;;;;;4935760;29;20023;-93
2021/11/09 10:30:04;;;;;;;8.23;4.80;;;;;;;;;;4935647;29;20024;-93
2021/11/09 10:32:31;;;;;;;9.10;7.00;;;;;;;;;;4935750;29;20494;-93
2021/11/09 10:34:58;;;;;;;12.63;7.35;;;;;;;;;;4935830;29;20502;-93
2021/11/09 10:37:26;;;;;;;15.68;8.02;;;;;;;;;;4935585;29;20028;-93
2021/11/09 10:39:53;;;;;;;12.65;7.75;;;;;;;;;;4935518;29;20028;-92
2021/11/09 10:42:23;;;;;;;10.43;6.90;;;;;;;;;;4935671;29;20035;-92
2021/11/09 10:45:02;;;;;;;11.65;7.13;;;;;;;;;;4935558;29;20488;-94
2021/11/09 10:47:30;;;;;;;10.30;7.32;;;;;;;;;;4935399;29;20056;-93
2021/11/09 10:49:56;;;;;;;13.98;8.18;;;;;;;;;;4935509;29;20035;-93
2021/11/09 10:52:31;;;;;;;14.07;7.60;;;;;;;;;;4935423;29;20032;-93
2021/11/09 10:55:06;;;;;;;10.75;6.57;;;;;;;;;;4935469;29;20036;-93
2021/11/09 11:05:48;;;;;;;20.55;12.57;;;;;;;;;;4940121;29;20106;-93
2021/11/09 11:08:14;;;;;;;17.75;11.98;;;;;;;;;;4938651;29;20055;-93
2021/11/09 11:10:40;;;;;;;17.85;11.52;;;;;;;;;;4938478;29;20091;-92
2021/11/09 11:13:17;;;;;;;12.90;8.77;;;;;;;;;;4938566;29;20505;-93
2021/11/09 11:16:03;;;;;;;16.17;10.95;;;;;;;;;;4938382;29;20024;-93
2021/11/09 11:18:31;;;;;;;18.85;10.20;;;;;;;;;;4938233;29;20032;-93
2021/11/09 11:20:58;;;;;;;17.58;11.68;;;;;;;;;;4938296;29;20392;-94
2021/11/09 11:23:24;;;;;;;22.88;14.27;;;;;;;;;;4887623;29;1248998;-94
2021/11/09 11:25:51;;;;;;;14.88;10.52;;;;;;;;;;4935607;29;20063;-93
2021/11/09 11:28:17;;;;;;;13.27;6.50;;;;;;;;;;4939610;29;20028;-94
2021/11/09 11:30:43;;;;;;;11.55;7.22;;;;;;;;;;4939389;29;20118;-94
2021/11/09 11:33:10;;;;;;;17.67;9.57;;;;;;;;;;4939625;29;20110;-93
2021/11/09 11:35:36;;;;;;;20.08;10.85;;;;;;;;;;4939501;29;20114;-94
2021/11/09 11:38:03;;;;;;;15.52;10.40;;;;;;;;;;4939527;29;20028;-94
2021/11/09 11:40:30;;;;;;;16.98;10.88;;;;;;;;;;4939659;29;20082;-94
2021/11/09 11:42:57;;;;;;;17.65;11.10;;;;;;;;;;4939221;29;20515;-94
2021/11/09 11:45:23;;;;;;;16.95;9.65;;;;;;;;;;4939108;29;20118;-94
2021/11/09 11:48:08;;;;;;;16.15;9.88;;;;;;;;;;4939255;29;20031;-94
2021/11/09 11:50:44;;;;;;;19.25;9.77;;;;;;;;;;4939194;29;20028;-93
2021/11/09 11:53:10;;;;;;;17.38;12.68;;;;;;;;;;4939080;29;20071;-94
2021/11/09 11:55:37;;;;;;;20.50;11.30;;;;;;;;;;4939007;29;20024;-93
2021/11/09 11:58:13;;;;;;;16.60;10.52;;;;;;;;;;4939100;29;20032;-94
2021/11/09 12:00:44;;;;;;;16.35;10.43;;;;;;;;;;4939780;29;20106;-93
2021/11/09 12:03:19;;;;;;;12.50;9.52;;;;;;;;;;4938912;29;20057;-94
2021/11/09 12:05:47;;;;;;;10.73;7.63;;;;;;;;;;4939480;29;20042;-93
2021/11/09 12:08:15;;;;;;;11.80;8.27;;;;;;;;;;4938693;29;20032;-93
2021/11/09 12:10:50;;;;;;;10.38;8.48;;;;;;;;;;4938776;29;20107;-94
2021/11/09 12:13:17;;;;;;;13.10;8.75;;;;;;;;;;4938967;29;20068;-94
2021/11/09 12:15:48;;;;;;;19.70;11.73;;;;;;;;;;4938450;29;20063;-95
2021/11/09 12:18:26;;;;;;;14.33;10.20;;;;;;;;;;4938772;29;20091;-95
2021/11/09 12:20:52;;;;;;;15.77;9.88;;;;;;;;;;4938744;29;20551;-94
2021/11/09 12:23:20;;;;;;;16.70;10.57;;;;;;;;;;4938591;29;20106;-93
2021/11/09 12:25:48;;;;;;;11.73;9.07;;;;;;;;;;4938647;29;20031;-93
2021/11/09 12:28:16;;;;;;;13.40;9.02;;;;;;;;;;4938380;29;20027;-93
2021/11/09 12:30:42;;;;;;;12.02;9.15;;;;;;;;;;4938593;29;20020;-93
2021/11/09 12:33:28;;;;;;;13.85;8.73;;;;;;;;;;4939014;29;20144;-94
2021/11/09 12:36:03;;;;;;;21.10;10.05;;;;;;;;;;4938792;29;20027;-94
2021/11/09 12:38:40;;;;;;;18.73;9.63;;;;;;;;;;4938317;29;20087;-94
2021/11/09 12:41:23;;;;;;;16.38;9.35;;;;;;;;;;4938472;29;20027;-94
2021/11/09 12:43:51;;;;;;;19.95;9.57;;;;;;;;;;4938217;29;20035;-94
2021/11/09 12:46:57;;;;;;;14.25;9.73;;;;;;;;;;4938297;29;20044;-94
2021/11/09 12:49:15;;;;;;;19.25;9.65;;;;;;;;;;4938019;29;20028;-94
2021/11/09 12:51:42;;;;;;;15.43;9.52;;;;;;;;;;4938030;29;20028;-93
2021/11/09 12:54:10;;;;;;;10.88;7.95;;;;;;;;;;4938088;29;20122;-93
2021/11/09 12:56:41;;;;;;;13.40;8.32;;;;;;;;;;4938153;29;20028;-94
2021/11/09 12:59:20;;;;;;;10.48;7.50;;;;;;;;;;4938436;29;20034;-94
2021/11/09 13:04:28;;;;;;;10.25;5.68;;;;;;;;;;4938823;29;20416;-93
2021/11/09 13:09:43;;;;;;;7.80;4.13;;;;;;;;;;4938879;29;20445;-92
2021/11/09 13:12:16;;;;;;;7.20;3.60;;;;;;;;;;4937761;29;20487;-93
2021/11/09 13:14:44;;;;;;;4.28;3.00;;;;;;;;;;4937690;29;20048;-93
2021/11/09 13:17:12;;;;;;;8.70;3.00;;;;;;;;;;4937519;29;20110;-92
2021/11/09 13:19:41;;;;;;;3.85;2.70;;;;;;;;;;4937594;29;20559;-92
2021/11/09 13:22:10;;;;;;;3.95;2.53;;;;;;;;;;4937461;29;20023;-92
2021/11/09 13:24:38;;;;;;;4.80;2.80;;;;;;;;;;4937487;29;20039;-93
2021/11/09 13:27:08;;;;;;;5.30;3.05;;;;;;;;;;4936870;29;20028;-94
2021/11/09 13:29:42;;;;;;;6.35;2.95;;;;;;;;;;4937360;29;20031;-94
2021/11/09 13:32:08;;;;;;;6.25;3.13;;;;;;;;;;4937210;29;20031;-94
2021/11/09 13:34:35;;;;;;;4.50;3.15;;;;;;;;;;4938338;29;20046;-94
2021/11/09 13:37:01;;;;;;;5.63;2.88;;;;;;;;;;4937926;29;20020;-93
2021/11/09 13:39:27;;;;;;;6.28;3.35;;;;;;;;;;4937943;29;20063;-93
2021/11/09 13:41:54;;;;;;;5.32;3.15;;;;;;;;;;4937120;29;20090;-93
2021/11/09 13:44:20;;;;;;;6.55;3.67;;;;;;;;;;4937111;29;20034;-93
2021/11/09 13:46:47;;;;;;;7.80;4.00;;;;;;;;;;4937048;29;20110;-93
2021/11/09 13:49:17;;;;;;;9.07;4.32;;;;;;;;;;4937218;29;20032;-93
2021/11/09 13:51:58;;;;;;;11.10;4.32;;;;;;;;;;4936944;29;20024;-93
2021/11/09 13:54:28;;;;;;;12.77;6.68;;;;;;;;;;4936990;29;20023;-94
2021/11/09 13:56:56;;;;;;;8.52;5.47;;;;;;;;;;4936792;29;20062;-93
2021/11/09 13:59:34;;;;;;;9.18;6.00;;;;;;;;;;4936762;29;20564;-94
2021/11/09 14:02:08;;;;;;;13.90;6.22;;;;;;;;;;4937418;29;20380;-94
2021/11/09 14:10:09;;;;;;;5.85;3.92;;;;;;;;;;4937673;29;20032;-93
2021/11/09 14:17:43;;;;;;;5.80;3.20;;;;;;;;;;4938602;29;20032;-95
2021/11/09 14:20:14;;;;;;;6.10;4.03;;;;;;;;;;4937053;29;20032;-94
2021/11/09 14:22:42;;;;;;;8.07;4.10;;;;;;;;;;4937540;29;20079;-95
2021/11/09 14:25:10;;;;;;;7.38;3.22;;;;;;;;;;4937248;29;20028;-95
2021/11/09 14:27:40;;;;;;;5.68;2.97;;;;;;;;;;4937212;29;20019;-94
2021/11/09 14:30:07;;;;;;;6.30;3.10;;;;;;;;;;4936913;29;20024;-92
2021/11/09 14:32:37;;;;;;;28.02;4.18;;;;;;;;;;4937456;29;20114;-93
2021/11/09 14:35:05;;;;;;;9.40;3.47;;;;;;;;;;4936863;29;20102;-92
2021/11/09 14:37:36;;;;;;;4.93;3.20;;;;;;;;;;4937406;29;20035;-92
2021/11/09 14:40:09;;;;;;;10.57;3.90;;;;;;;;;;4937885;29;20496;-92
2021/11/09 14:43:24;;;;;;;8.30;4.75;;;;;;;;;;4936873;29;20063;-92
2021/11/09 14:45:32;;;;;;;6.00;4.03;;;;;;;;;;4933990;29;20031;-93
2021/11/09 14:48:08;;;;;;;6.85;3.42;;;;;;;;;;4937159;29;20464;-93
2021/11/09 14:50:40;;;;;;;5.43;3.45;;;;;;;;;;4936812;29;20091;-92
2021/11/09 14:53:17;;;;;;;5.72;3.50;;;;;;;;;;4936775;29;20054;-92
2021/11/09 14:55:49;;;;;;;6.85;4.75;;;;;;;;;;4936676;29;20032;-92
2021/11/09 14:58:48;;;;;;;8.10;6.40;;;;;;;;;;4936675;29;20115;-92
2021/11/09 15:04:11;;;;;;;8.70;6.15;;;;;;;;;;4937913;29;20032;-91
2021/11/09 15:11:42;;;;;;;6.68;4.25;;;;;;;;;;4937448;29;20024;-91
2021/11/09 15:25:26;;;;;;;7.13;4.28;;;;;;;;;;4937734;29;20039;-91
2021/11/09 15:30:51;;;;;;;7.30;3.90;;;;;;;;;;4937760;29;20118;-91
2021/11/09 15:38:49;;;;;;;9.50;5.22;;;;;;;;;;4937488;29;20086;-93
2021/11/09 15:41:15;;;;;;;6.38;4.25;;;;;;;;;;4936667;29;20082;-91
2021/11/09 15:43:42;;;;;;;9.85;4.50;;;;;;;;;;4935542;29;20034;-91
2021/11/09 15:46:09;;;;;;;9.02;5.10;;;;;;;;;;4936395;29;20120;-91
2021/11/09 15:48:35;;;;;;;9.20;5.22;;;;;;;;;;4936207;29;20035;-91
2021/11/09 15:51:02;;;;;;;7.72;4.97;;;;;;;;;;4939051;29;20024;-91
2021/11/09 15:53:29;;;;;;;11.05;5.45;;;;;;;;;;4939762;29;20044;-91
2021/11/09 15:55:55;;;;;;;8.95;5.53;;;;;;;;;;4939948;29;20051;-91
2021/11/09 15:58:22;;;;;;;10.75;5.70;;;;;;;;;;4939963;29;20396;-91
2021/11/09 16:00:48;;;;;;;9.40;5.70;;;;;;;;;;4939586;29;20118;-91
2021/11/09 16:03:17;;;;;;;11.98;5.80;;;;;;;;;;4939565;29;20055;-91
2021/11/09 16:05:44;;;;;;;10.10;4.78;;;;;;;;;;4939786;29;20392;-92
2021/11/09 16:08:10;;;;;;;10.20;4.13;;;;;;;;;;4939108;29;20039;-91
2021/11/09 16:10:38;;;;;;;5.80;4.55;;;;;;;;;;4940064;29;20027;-91
2021/11/09 16:13:11;;;;;;;7.15;4.35;;;;;;;;;;4948444;28;20106;-96
2021/11/09 16:16:02;;;;;;;9.90;4.30;;;;;;;;;;4945651;29;20494;-91
2021/11/09 16:18:29;;;;;;;6.80;3.40;;;;;;;;;;4941245;29;20043;-92
2021/11/09 16:20:55;;;;;;;4.75;2.78;;;;;;;;;;4939433;29;20032;-91
2021/11/09 16:23:21;;;;;;;13.32;3.28;;;;;;;;;;4938916;29;20043;-92
2021/11/09 16:25:48;;;;;;;7.38;2.58;;;;;;;;;;4938552;29;20023;-91
2021/11/09 16:28:15;;;;;;;4.10;2.70;;;;;;;;;;4939015;29;20035;-91
2021/11/09 16:30:42;;;;;;;4.72;2.70;;;;;;;;;;4939670;29;20086;-91
2021/11/09 16:33:29;;;;;;;6.75;2.67;;;;;;;;;;4939131;29;20028;-91
2021/11/09 16:36:03;;;;;;;7.63;2.60;;;;;;;;;;4939091;29;20020;-91
2021/11/09 16:38:34;;;;;;;4.30;2.47;;;;;;;;;;4938830;29;20028;-91
2021/11/09 16:41:01;;;;;;;2.92;2.15;;;;;;;;;;4938684;29;20024;-91
2021/11/09 16:44:16;;;;;;;9.00;2.33;;;;;;;;;;4931373;29;20074;-90
2021/11/09 16:51:33;;;;;;;3.30;1.92;;;;;;;;;;4920632;29;20481;-90
2021/11/09 16:54:11;;;;;;;3.53;2.38;;;;;;;;;;4919445;29;20173;-90
2021/11/09 18:15:30;;;;;;;1.95;1.20;;;;;;;;;;4919618;29;20051;-91
2021/11/09 18:20:43;;;;;;;3.25;1.25;;;;;;;;;;4919250;29;20553;-90
2021/11/09 18:23:10;;;;;;;2.97;1.30;;;;;;;;;;4917991;29;20047;-90
2021/11/09 18:25:36;;;;;;;3.53;1.60;;;;;;;;;;4918065;29;20115;-91
2021/11/09 18:28:04;;;;;;;2.90;1.60;;;;;;;;;;4917908;29;20555;-91
2021/11/09 18:30:33;;;;;;;2.40;1.30;;;;;;;;;;4921065;29;20035;-91
2021/11/09 18:33:00;;;;;;;6.15;1.90;;;;;;;;;;4936777;29;20042;-91
2021/11/09 18:35:27;;;;;;;3.97;1.73;;;;;;;;;;4936662;29;20023;-91
2021/11/09 18:37:56;;;;;;;6.72;2.17;;;;;;;;;;4936638;29;20023;-91
2021/11/09 18:40:22;;;;;;;3.53;2.40;;;;;;;;;;4936631;29;20544;-91
2021/11/09 18:42:50;;;;;;;4.97;2.60;;;;;;;;;;4936519;29;20024;-90
2021/11/09 18:45:18;;;;;;;4.97;2.55;;;;;;;;;;4936149;29;20019;-90
2021/11/09 18:47:47;;;;;;;4.07;2.50;;;;;;;;;;4936672;29;20070;-89
2021/11/09 18:50:14;;;;;;;5.65;3.10;;;;;;;;;;4936567;29;20042;-90
2021/11/09 18:52:41;;;;;;;3.63;2.30;;;;;;;;;;4936686;29;20477;-91
2021/11/09 18:55:07;;;;;;;3.28;1.60;;;;;;;;;;4936571;29;20481;-90
2021/11/09 18:57:34;;;;;;;1.92;1.20;;;;;;;;;;4936658;29;20123;-90
2021/11/09 19:00:00;;;;;;;4.63;1.35;;;;;;;;;;4937616;29;20039;-91
2021/11/09 19:02:29;;;;;;;3.58;1.65;;;;;;;;;;4936939;29;20028;-91
2021/11/09 19:04:59;;;;;;;4.45;2.05;;;;;;;;;;4937130;29;20028;-91
2021/11/09 19:07:26;;;;;;;6.78;2.63;;;;;;;;;;4936538;29;20123;-90
2021/11/09 19:09:52;;;;;;;4.75;3.10;;;;;;;;;;4936347;29;20059;-90
2021/11/09 19:12:19;;;;;;;7.15;2.30;;;;;;;;;;4936535;29;20034;-91
2021/11/09 19:14:46;;;;;;;3.95;2.00;;;;;;;;;;4936809;29;20031;-91
2021/11/09 19:17:12;;;;;;;4.88;1.70;;;;;;;;;;4936748;29;20016;-91
2021/11/09 19:19:38;;;;;;;6.53;2.33;;;;;;;;;;4936385;29;20032;-90
2021/11/09 19:22:05;;;;;;;5.60;1.98;;;;;;;;;;4935522;29;20039;-91
2021/11/09 19:24:31;;;;;;;5.38;1.70;;;;;;;;;;4937138;29;20031;-90
2021/11/09 19:26:57;;;;;;;5.22;1.55;;;;;;;;;;4940368;29;20027;-90
2021/11/09 19:29:24;;;;;;;4.53;1.77;;;;;;;;;;4939833;29;20122;-91
2021/11/09 19:31:51;;;;;;;3.70;1.25;;;;;;;;;;4926266;29;20094;-90